sensor_id;sensor_type;location;lat;lon;timestamp;temperature;humidity
62339;DHT22;48368;53.406;6.214;2023-05-07T00:00:11;11.80;99.90
62339;DHT22;48368;53.406;6.214;2023-05-07T00:02:40;11.80;99.90
62339;DHT22;48368;53.406;6.214;2023-05-07T00:05:06;11.80;99.90
62339;DHT22;48368;53.406;6.214;2023-05-07T00:07:32;11.70;99.90
62339;DHT22;48368;53.406;6.214;2023-05-07T00:09:58;11.70;99.90
62339;DHT22;48368;53.406;6.214;2023-05-07T00:12:23;11.70;99.90
62339;DHT22;48368;53.406;6.214;2023-05-07T00:14:49;11.70;99.90
62339;DHT22;48368;53.406;6.214;2023-05-07T00:17:15;11.60;99.90
62339;DHT22;48368;53.406;6.214;2023-05-07T00:19:40;11.60;99.90
62339;DHT22;48368;53.406;6.214;2023-05-07T00:22:08;11.60;99.90
62339;DHT22;48368;53.406;6.214;2023-05-07T00:24:34;11.60;99.90
62339;DHT22;48368;53.406;6.214;2023-05-07T00:27:00;11.60;99.90
62339;DHT22;48368;53.406;6.214;2023-05-07T00:29:27;11.60;99.90
62339;DHT22;48368;53.406;6.214;2023-05-07T00:31:52;11.60;99.90
62339;DHT22;48368;53.406;6.214;2023-05-07T00:34:20;11.50;99.90
62339;DHT22;48368;53.406;6.214;2023-05-07T00:36:45;11.40;99.90
62339;DHT22;48368;53.406;6.214;2023-05-07T00:39:11;11.50;99.90
62339;DHT22;48368;53.406;6.214;2023-05-07T00:41:37;11.50;99.90
62339;DHT22;48368;53.406;6.214;2023-05-07T00:44:02;11.50;99.90
62339;DHT22;48368;53.406;6.214;2023-05-07T00:46:28;11.40;99.90
62339;DHT22;48368;53.406;6.214;2023-05-07T00:48:56;11.40;99.90
62339;DHT22;48368;53.406;6.214;2023-05-07T00:51:23;11.40;99.90
62339;DHT22;48368;53.406;6.214;2023-05-07T00:53:49;11.40;99.90
62339;DHT22;48368;53.406;6.214;2023-05-07T00:56:15;11.30;99.90
62339;DHT22;48368;53.406;6.214;2023-05-07T00:58:41;11.30;99.90
62339;DHT22;48368;53.406;6.214;2023-05-07T01:01:07;11.30;99.90
62339;DHT22;48368;53.406;6.214;2023-05-07T01:03:33;11.30;99.90
62339;DHT22;48368;53.406;6.214;2023-05-07T01:05:59;11.30;99.90
62339;DHT22;48368;53.406;6.214;2023-05-07T01:08:26;11.20;99.90
62339;DHT22;48368;53.406;6.214;2023-05-07T01:10:55;11.30;99.90
62339;DHT22;48368;53.406;6.214;2023-05-07T01:13:21;11.30;99.90
62339;DHT22;48368;53.406;6.214;2023-05-07T01:15:47;11.20;99.90
62339;DHT22;48368;53.406;6.214;2023-05-07T01:18:13;11.20;99.90
62339;DHT22;48368;53.406;6.214;2023-05-07T01:20:39;11.10;99.90
62339;DHT22;48368;53.406;6.214;2023-05-07T01:23:07;11.20;99.90
62339;DHT22;48368;53.406;6.214;2023-05-07T01:25:32;11.20;99.90
62339;DHT22;48368;53.406;6.214;2023-05-07T01:27:58;11.20;99.90
62339;DHT22;48368;53.406;6.214;2023-05-07T01:30:28;11.10;99.90
62339;DHT22;48368;53.406;6.214;2023-05-07T01:33:08;11.10;99.90
62339;DHT22;48368;53.406;6.214;2023-05-07T01:35:40;11.20;99.90
62339;DHT22;48368;53.406;6.214;2023-05-07T01:38:08;11.10;99.90
62339;DHT22;48368;53.406;6.214;2023-05-07T01:40:34;11.10;99.90
62339;DHT22;48368;53.406;6.214;2023-05-07T01:43:01;11.10;99.90
62339;DHT22;48368;53.406;6.214;2023-05-07T01:45:31;11.10;99.90
62339;DHT22;48368;53.406;6.214;2023-05-07T01:48:02;11.00;99.90
62339;DHT22;48368;53.406;6.214;2023-05-07T01:50:29;11.00;99.90
62339;DHT22;48368;53.406;6.214;2023-05-07T01:52:55;11.00;99.90
62339;DHT22;48368;53.406;6.214;2023-05-07T01:55:21;11.00;99.90
62339;DHT22;48368;53.406;6.214;2023-05-07T01:57:47;11.00;99.90
62339;DHT22;48368;53.406;6.214;2023-05-07T02:00:12;11.00;99.90
62339;DHT22;48368;53.406;6.214;2023-05-07T02:02:38;10.90;99.90
62339;DHT22;48368;53.406;6.214;2023-05-07T02:05:05;10.80;99.90
62339;DHT22;48368;53.406;6.214;2023-05-07T02:07:30;10.90;99.90
62339;DHT22;48368;53.406;6.214;2023-05-07T02:09:56;10.90;99.90
62339;DHT22;48368;53.406;6.214;2023-05-07T02:12:22;10.90;99.90
62339;DHT22;48368;53.406;6.214;2023-05-07T02:14:48;10.90;99.90
62339;DHT22;48368;53.406;6.214;2023-05-07T02:17:14;10.90;99.90
62339;DHT22;48368;53.406;6.214;2023-05-07T02:19:39;10.90;99.90
62339;DHT22;48368;53.406;6.214;2023-05-07T02:22:05;10.90;99.90
62339;DHT22;48368;53.406;6.214;2023-05-07T02:24:31;10.80;99.90
62339;DHT22;48368;53.406;6.214;2023-05-07T02:26:56;10.90;99.90
62339;DHT22;48368;53.406;6.214;2023-05-07T02:29:22;10.90;99.90
62339;DHT22;48368;53.406;6.214;2023-05-07T02:31:48;10.80;99.90
62339;DHT22;48368;53.406;6.214;2023-05-07T02:34:18;10.80;99.90
62339;DHT22;48368;53.406;6.214;2023-05-07T02:36:44;10.90;99.90
62339;DHT22;48368;53.406;6.214;2023-05-07T02:39:11;10.80;99.90
62339;DHT22;48368;53.406;6.214;2023-05-07T02:41:37;10.90;99.90
62339;DHT22;48368;53.406;6.214;2023-05-07T02:44:03;10.80;99.90
62339;DHT22;48368;53.406;6.214;2023-05-07T02:46:29;10.80;99.90
62339;DHT22;48368;53.406;6.214;2023-05-07T02:48:55;10.80;99.90
62339;DHT22;48368;53.406;6.214;2023-05-07T02:51:22;10.80;99.90
62339;DHT22;48368;53.406;6.214;2023-05-07T02:53:48;10.90;99.90
62339;DHT22;48368;53.406;6.214;2023-05-07T02:56:13;10.90;99.90
62339;DHT22;48368;53.406;6.214;2023-05-07T02:58:39;10.80;99.90
62339;DHT22;48368;53.406;6.214;2023-05-07T03:01:05;10.80;99.90
62339;DHT22;48368;53.406;6.214;2023-05-07T03:03:31;10.90;99.90
62339;DHT22;48368;53.406;6.214;2023-05-07T03:05:57;10.90;99.90
62339;DHT22;48368;53.406;6.214;2023-05-07T03:08:23;10.80;99.90
62339;DHT22;48368;53.406;6.214;2023-05-07T03:10:48;10.90;99.90
62339;DHT22;48368;53.406;6.214;2023-05-07T03:13:14;10.90;99.90
62339;DHT22;48368;53.406;6.214;2023-05-07T03:15:40;10.80;99.90
62339;DHT22;48368;53.406;6.214;2023-05-07T03:18:05;10.80;99.90
62339;DHT22;48368;53.406;6.214;2023-05-07T03:20:31;10.80;99.90
62339;DHT22;48368;53.406;6.214;2023-05-07T03:22:57;10.70;99.90
62339;DHT22;48368;53.406;6.214;2023-05-07T03:25:23;10.80;99.90
62339;DHT22;48368;53.406;6.214;2023-05-07T03:27:49;10.80;99.90
62339;DHT22;48368;53.406;6.214;2023-05-07T03:30:15;10.80;99.90
62339;DHT22;48368;53.406;6.214;2023-05-07T03:32:40;10.70;99.90
62339;DHT22;48368;53.406;6.214;2023-05-07T03:35:06;10.80;99.90
62339;DHT22;48368;53.406;6.214;2023-05-07T03:37:32;10.80;99.90
62339;DHT22;48368;53.406;6.214;2023-05-07T03:39:58;10.70;99.90
62339;DHT22;48368;53.406;6.214;2023-05-07T03:42:23;10.80;99.90
62339;DHT22;48368;53.406;6.214;2023-05-07T03:44:49;10.80;99.90
62339;DHT22;48368;53.406;6.214;2023-05-07T03:47:15;10.70;99.90
62339;DHT22;48368;53.406;6.214;2023-05-07T03:49:40;10.80;99.90
62339;DHT22;48368;53.406;6.214;2023-05-07T03:52:06;10.70;99.90
62339;DHT22;48368;53.406;6.214;2023-05-07T03:54:32;10.70;99.90
62339;DHT22;48368;53.406;6.214;2023-05-07T03:56:58;10.70;99.90
62339;DHT22;48368;53.406;6.214;2023-05-07T03:59:23;10.70;99.90
62339;DHT22;48368;53.406;6.214;2023-05-07T04:01:49;10.60;99.90
62339;DHT22;48368;53.406;6.214;2023-05-07T04:04:15;10.60;99.90
62339;DHT22;48368;53.406;6.214;2023-05-07T04:06:41;10.60;99.90
62339;DHT22;48368;53.406;6.214;2023-05-07T04:09:07;10.60;99.90
62339;DHT22;48368;53.406;6.214;2023-05-07T04:11:33;10.60;99.90
62339;DHT22;48368;53.406;6.214;2023-05-07T04:13:59;10.50;99.90
62339;DHT22;48368;53.406;6.214;2023-05-07T04:16:24;10.60;99.90
62339;DHT22;48368;53.406;6.214;2023-05-07T04:18:50;10.60;99.90
62339;DHT22;48368;53.406;6.214;2023-05-07T04:21:20;10.50;99.90
62339;DHT22;48368;53.406;6.214;2023-05-07T04:23:47;10.50;99.90
62339;DHT22;48368;53.406;6.214;2023-05-07T04:26:13;10.60;99.90
62339;DHT22;48368;53.406;6.214;2023-05-07T04:28:39;10.50;99.90
62339;DHT22;48368;53.406;6.214;2023-05-07T04:31:06;10.50;99.90
62339;DHT22;48368;53.406;6.214;2023-05-07T04:33:32;10.50;99.90
62339;DHT22;48368;53.406;6.214;2023-05-07T04:36:00;10.40;99.90
62339;DHT22;48368;53.406;6.214;2023-05-07T04:38:29;10.50;99.90
62339;DHT22;48368;53.406;6.214;2023-05-07T04:40:55;10.50;99.90
62339;DHT22;48368;53.406;6.214;2023-05-07T04:43:21;10.40;99.90
62339;DHT22;48368;53.406;6.214;2023-05-07T04:45:47;10.50;99.90
62339;DHT22;48368;53.406;6.214;2023-05-07T04:48:14;10.50;99.90
62339;DHT22;48368;53.406;6.214;2023-05-07T04:50:41;10.40;99.90
62339;DHT22;48368;53.406;6.214;2023-05-07T04:53:07;10.50;99.90
62339;DHT22;48368;53.406;6.214;2023-05-07T04:55:32;10.50;99.90
62339;DHT22;48368;53.406;6.214;2023-05-07T04:57:58;10.50;99.90
62339;DHT22;48368;53.406;6.214;2023-05-07T05:00:25;10.40;99.90
62339;DHT22;48368;53.406;6.214;2023-05-07T05:02:51;10.40;99.90
62339;DHT22;48368;53.406;6.214;2023-05-07T05:05:17;10.50;99.90
62339;DHT22;48368;53.406;6.214;2023-05-07T05:07:42;10.50;99.90
62339;DHT22;48368;53.406;6.214;2023-05-07T05:10:08;10.40;99.90
62339;DHT22;48368;53.406;6.214;2023-05-07T05:12:34;10.50;99.90
62339;DHT22;48368;53.406;6.214;2023-05-07T05:15:00;10.50;99.90
62339;DHT22;48368;53.406;6.214;2023-05-07T05:17:25;10.40;99.90
62339;DHT22;48368;53.406;6.214;2023-05-07T05:19:51;10.40;99.90
62339;DHT22;48368;53.406;6.214;2023-05-07T05:22:16;10.50;99.90
62339;DHT22;48368;53.406;6.214;2023-05-07T05:24:42;10.30;99.90
62339;DHT22;48368;53.406;6.214;2023-05-07T05:27:08;10.40;99.90
62339;DHT22;48368;53.406;6.214;2023-05-07T05:29:33;10.30;99.90
62339;DHT22;48368;53.406;6.214;2023-05-07T05:31:59;10.40;99.90
62339;DHT22;48368;53.406;6.214;2023-05-07T05:34:25;10.40;99.90
62339;DHT22;48368;53.406;6.214;2023-05-07T05:36:50;10.30;99.90
62339;DHT22;48368;53.406;6.214;2023-05-07T05:39:16;10.30;99.90
62339;DHT22;48368;53.406;6.214;2023-05-07T05:41:42;10.30;99.90
62339;DHT22;48368;53.406;6.214;2023-05-07T05:44:07;10.30;99.90
62339;DHT22;48368;53.406;6.214;2023-05-07T05:46:33;10.30;99.90
62339;DHT22;48368;53.406;6.214;2023-05-07T05:49:00;10.30;99.90
62339;DHT22;48368;53.406;6.214;2023-05-07T05:51:25;10.30;99.90
62339;DHT22;48368;53.406;6.214;2023-05-07T05:53:51;10.20;99.90
62339;DHT22;48368;53.406;6.214;2023-05-07T05:56:17;10.30;99.90
62339;DHT22;48368;53.406;6.214;2023-05-07T05:58:43;10.30;99.90
62339;DHT22;48368;53.406;6.214;2023-05-07T06:01:08;10.30;99.90
62339;DHT22;48368;53.406;6.214;2023-05-07T06:03:34;10.30;99.90
62339;DHT22;48368;53.406;6.214;2023-05-07T06:06:00;10.30;99.90
62339;DHT22;48368;53.406;6.214;2023-05-07T06:08:29;10.30;99.90
62339;DHT22;48368;53.406;6.214;2023-05-07T06:10:55;10.30;99.90
62339;DHT22;48368;53.406;6.214;2023-05-07T06:13:20;10.30;99.90
62339;DHT22;48368;53.406;6.214;2023-05-07T06:15:46;10.40;99.90
62339;DHT22;48368;53.406;6.214;2023-05-07T06:18:11;10.40;99.90
62339;DHT22;48368;53.406;6.214;2023-05-07T06:20:37;10.40;99.90
62339;DHT22;48368;53.406;6.214;2023-05-07T06:23:03;10.40;99.90
62339;DHT22;48368;53.406;6.214;2023-05-07T06:25:30;10.40;99.90
62339;DHT22;48368;53.406;6.214;2023-05-07T06:27:56;10.40;99.90
62339;DHT22;48368;53.406;6.214;2023-05-07T06:30:22;10.40;99.90
62339;DHT22;48368;53.406;6.214;2023-05-07T06:32:48;10.40;99.90
62339;DHT22;48368;53.406;6.214;2023-05-07T06:35:13;10.50;99.90
62339;DHT22;48368;53.406;6.214;2023-05-07T06:37:41;10.50;99.90
62339;DHT22;48368;53.406;6.214;2023-05-07T06:40:08;10.50;99.90
62339;DHT22;48368;53.406;6.214;2023-05-07T06:42:35;10.50;99.90
62339;DHT22;48368;53.406;6.214;2023-05-07T06:45:01;10.50;99.90
62339;DHT22;48368;53.406;6.214;2023-05-07T06:47:26;10.50;99.90
62339;DHT22;48368;53.406;6.214;2023-05-07T06:49:52;10.50;99.90
62339;DHT22;48368;53.406;6.214;2023-05-07T06:52:17;10.40;99.90
62339;DHT22;48368;53.406;6.214;2023-05-07T06:54:43;10.50;99.90
62339;DHT22;48368;53.406;6.214;2023-05-07T06:57:09;10.50;99.90
62339;DHT22;48368;53.406;6.214;2023-05-07T06:59:34;10.40;99.90
62339;DHT22;48368;53.406;6.214;2023-05-07T07:02:00;10.40;99.90
62339;DHT22;48368;53.406;6.214;2023-05-07T07:04:26;10.40;99.90
62339;DHT22;48368;53.406;6.214;2023-05-07T07:06:53;10.40;99.90
62339;DHT22;48368;53.406;6.214;2023-05-07T07:09:19;10.50;99.90
62339;DHT22;48368;53.406;6.214;2023-05-07T07:11:44;10.40;99.90
62339;DHT22;48368;53.406;6.214;2023-05-07T07:14:10;10.40;99.90
62339;DHT22;48368;53.406;6.214;2023-05-07T07:16:35;10.40;99.90
62339;DHT22;48368;53.406;6.214;2023-05-07T07:19:01;10.40;99.90
62339;DHT22;48368;53.406;6.214;2023-05-07T07:21:27;10.40;99.90
62339;DHT22;48368;53.406;6.214;2023-05-07T07:23:52;10.40;99.90
62339;DHT22;48368;53.406;6.214;2023-05-07T07:26:19;10.40;99.90
62339;DHT22;48368;53.406;6.214;2023-05-07T07:28:45;10.30;99.90
62339;DHT22;48368;53.406;6.214;2023-05-07T07:31:11;10.40;99.90
62339;DHT22;48368;53.406;6.214;2023-05-07T07:33:37;10.30;99.90
62339;DHT22;48368;53.406;6.214;2023-05-07T07:36:05;10.30;99.90
62339;DHT22;48368;53.406;6.214;2023-05-07T07:38:31;10.30;99.90
62339;DHT22;48368;53.406;6.214;2023-05-07T07:40:56;10.30;99.90
62339;DHT22;48368;53.406;6.214;2023-05-07T07:43:22;10.30;99.90
62339;DHT22;48368;53.406;6.214;2023-05-07T07:45:48;10.40;99.90
62339;DHT22;48368;53.406;6.214;2023-05-07T07:48:13;10.50;99.90
62339;DHT22;48368;53.406;6.214;2023-05-07T07:50:39;10.50;99.90
62339;DHT22;48368;53.406;6.214;2023-05-07T07:53:05;10.40;99.90
62339;DHT22;48368;53.406;6.214;2023-05-07T07:55:30;10.50;99.90
62339;DHT22;48368;53.406;6.214;2023-05-07T07:57:57;10.60;99.90
62339;DHT22;48368;53.406;6.214;2023-05-07T08:00:23;10.50;99.90
62339;DHT22;48368;53.406;6.214;2023-05-07T08:02:48;10.60;99.90
62339;DHT22;48368;53.406;6.214;2023-05-07T08:05:14;10.60;99.90
62339;DHT22;48368;53.406;6.214;2023-05-07T08:07:40;10.70;99.90
62339;DHT22;48368;53.406;6.214;2023-05-07T08:10:06;10.60;99.90
62339;DHT22;48368;53.406;6.214;2023-05-07T08:12:32;10.60;99.90
62339;DHT22;48368;53.406;6.214;2023-05-07T08:14:58;10.60;99.90
62339;DHT22;48368;53.406;6.214;2023-05-07T08:17:24;10.70;99.90
62339;DHT22;48368;53.406;6.214;2023-05-07T08:19:50;10.60;99.90
62339;DHT22;48368;53.406;6.214;2023-05-07T08:22:15;10.60;99.90
62339;DHT22;48368;53.406;6.214;2023-05-07T08:24:43;10.70;99.90
62339;DHT22;48368;53.406;6.214;2023-05-07T08:27:08;10.70;99.90
62339;DHT22;48368;53.406;6.214;2023-05-07T08:29:34;10.70;99.90
62339;DHT22;48368;53.406;6.214;2023-05-07T08:32:00;10.80;99.90
62339;DHT22;48368;53.406;6.214;2023-05-07T08:34:25;10.90;99.90
62339;DHT22;48368;53.406;6.214;2023-05-07T08:36:51;10.80;99.90
62339;DHT22;48368;53.406;6.214;2023-05-07T08:39:17;10.80;99.90
62339;DHT22;48368;53.406;6.214;2023-05-07T08:41:44;10.90;99.90
62339;DHT22;48368;53.406;6.214;2023-05-07T08:44:14;10.90;99.90
62339;DHT22;48368;53.406;6.214;2023-05-07T08:46:42;10.90;99.90
62339;DHT22;48368;53.406;6.214;2023-05-07T08:49:09;11.00;99.90
62339;DHT22;48368;53.406;6.214;2023-05-07T08:51:35;11.00;99.90
62339;DHT22;48368;53.406;6.214;2023-05-07T08:54:02;11.10;99.90
62339;DHT22;48368;53.406;6.214;2023-05-07T08:56:27;11.20;99.90
62339;DHT22;48368;53.406;6.214;2023-05-07T08:58:53;11.10;99.90
62339;DHT22;48368;53.406;6.214;2023-05-07T09:01:24;11.30;99.90
62339;DHT22;48368;53.406;6.214;2023-05-07T09:03:50;11.20;99.90
62339;DHT22;48368;53.406;6.214;2023-05-07T09:06:17;11.40;99.90
62339;DHT22;48368;53.406;6.214;2023-05-07T09:08:52;11.40;99.90
62339;DHT22;48368;53.406;6.214;2023-05-07T09:11:22;11.50;99.90
62339;DHT22;48368;53.406;6.214;2023-05-07T09:13:48;11.50;99.90
62339;DHT22;48368;53.406;6.214;2023-05-07T09:16:15;11.60;99.90
62339;DHT22;48368;53.406;6.214;2023-05-07T09:18:42;11.60;99.90
62339;DHT22;48368;53.406;6.214;2023-05-07T09:21:15;11.70;99.90
62339;DHT22;48368;53.406;6.214;2023-05-07T09:23:41;11.90;99.90
62339;DHT22;48368;53.406;6.214;2023-05-07T09:26:07;12.00;99.90
62339;DHT22;48368;53.406;6.214;2023-05-07T09:28:39;12.20;99.90
62339;DHT22;48368;53.406;6.214;2023-05-07T09:31:05;12.30;99.90
62339;DHT22;48368;53.406;6.214;2023-05-07T09:33:31;12.30;99.90
62339;DHT22;48368;53.406;6.214;2023-05-07T09:35:57;12.30;99.90
62339;DHT22;48368;53.406;6.214;2023-05-07T09:38:22;12.50;99.90
62339;DHT22;48368;53.406;6.214;2023-05-07T09:41:08;12.60;99.90
62339;DHT22;48368;53.406;6.214;2023-05-07T09:43:35;12.70;99.90
62339;DHT22;48368;53.406;6.214;2023-05-07T09:46:12;12.90;99.90
62339;DHT22;48368;53.406;6.214;2023-05-07T09:48:38;13.00;99.90
62339;DHT22;48368;53.406;6.214;2023-05-07T09:51:29;13.10;99.90
62339;DHT22;48368;53.406;6.214;2023-05-07T09:53:56;13.30;99.90
62339;DHT22;48368;53.406;6.214;2023-05-07T09:56:22;13.30;99.90
62339;DHT22;48368;53.406;6.214;2023-05-07T09:58:49;13.20;99.90
62339;DHT22;48368;53.406;6.214;2023-05-07T10:01:17;13.30;99.90
62339;DHT22;48368;53.406;6.214;2023-05-07T10:03:45;13.30;99.90
62339;DHT22;48368;53.406;6.214;2023-05-07T10:06:13;13.30;99.90
62339;DHT22;48368;53.406;6.214;2023-05-07T10:08:39;13.40;99.90
62339;DHT22;48368;53.406;6.214;2023-05-07T10:11:05;13.40;99.90
62339;DHT22;48368;53.406;6.214;2023-05-07T10:13:33;13.50;99.90
62339;DHT22;48368;53.406;6.214;2023-05-07T10:16:02;13.60;99.90
62339;DHT22;48368;53.406;6.214;2023-05-07T10:18:30;13.70;99.90
62339;DHT22;48368;53.406;6.214;2023-05-07T10:21:10;13.80;99.90
62339;DHT22;48368;53.406;6.214;2023-05-07T10:23:37;13.80;99.90
62339;DHT22;48368;53.406;6.214;2023-05-07T10:26:06;13.90;99.90
62339;DHT22;48368;53.406;6.214;2023-05-07T10:28:37;14.10;99.90
62339;DHT22;48368;53.406;6.214;2023-05-07T10:33:40;14.40;99.90
62339;DHT22;48368;53.406;6.214;2023-05-07T10:36:07;14.50;99.90
62339;DHT22;48368;53.406;6.214;2023-05-07T10:38:33;14.40;99.90
62339;DHT22;48368;53.406;6.214;2023-05-07T10:40:59;14.60;99.90
62339;DHT22;48368;53.406;6.214;2023-05-07T10:43:25;14.60;99.90
62339;DHT22;48368;53.406;6.214;2023-05-07T10:46:19;14.70;99.90
62339;DHT22;48368;53.406;6.214;2023-05-07T10:51:27;14.80;99.90
62339;DHT22;48368;53.406;6.214;2023-05-07T10:54:19;14.80;99.90
62339;DHT22;48368;53.406;6.214;2023-05-07T10:56:45;15.00;99.90
62339;DHT22;48368;53.406;6.214;2023-05-07T11:02:01;14.90;99.90
62339;DHT22;48368;53.406;6.214;2023-05-07T11:04:29;14.90;99.90
62339;DHT22;48368;53.406;6.214;2023-05-07T11:07:14;14.80;99.90
62339;DHT22;48368;53.406;6.214;2023-05-07T11:17:57;15.30;99.90
62339;DHT22;48368;53.406;6.214;2023-05-07T11:20:52;15.20;99.90
62339;DHT22;48368;53.406;6.214;2023-05-07T11:26:10;15.60;99.90
62339;DHT22;48368;53.406;6.214;2023-05-07T11:28:41;15.70;99.90
62339;DHT22;48368;53.406;6.214;2023-05-07T11:31:08;15.70;99.90
62339;DHT22;48368;53.406;6.214;2023-05-07T11:33:34;15.90;99.90
62339;DHT22;48368;53.406;6.214;2023-05-07T11:36:03;15.90;99.90
62339;DHT22;48368;53.406;6.214;2023-05-07T11:38:35;16.10;99.90
62339;DHT22;48368;53.406;6.214;2023-05-07T11:41:01;16.10;99.90
62339;DHT22;48368;53.406;6.214;2023-05-07T11:43:28;16.00;99.90
62339;DHT22;48368;53.406;6.214;2023-05-07T11:45:54;15.90;99.90
62339;DHT22;48368;53.406;6.214;2023-05-07T11:48:21;16.00;99.90
62339;DHT22;48368;53.406;6.214;2023-05-07T11:50:54;15.90;99.90
62339;DHT22;48368;53.406;6.214;2023-05-07T11:53:26;16.00;99.90
62339;DHT22;48368;53.406;6.214;2023-05-07T11:56:05;16.20;99.90
62339;DHT22;48368;53.406;6.214;2023-05-07T11:58:31;16.50;99.90
62339;DHT22;48368;53.406;6.214;2023-05-07T12:00:57;16.50;99.90
62339;DHT22;48368;53.406;6.214;2023-05-07T12:03:22;16.30;99.90
62339;DHT22;48368;53.406;6.214;2023-05-07T12:05:48;16.30;99.90
62339;DHT22;48368;53.406;6.214;2023-05-07T12:08:15;16.40;99.90
62339;DHT22;48368;53.406;6.214;2023-05-07T12:10:45;16.60;99.90
62339;DHT22;48368;53.406;6.214;2023-05-07T12:13:22;16.80;99.90
62339;DHT22;48368;53.406;6.214;2023-05-07T12:15:55;17.10;99.90
62339;DHT22;48368;53.406;6.214;2023-05-07T12:18:21;17.10;99.90
62339;DHT22;48368;53.406;6.214;2023-05-07T12:20:47;17.10;99.90
62339;DHT22;48368;53.406;6.214;2023-05-07T12:23:14;17.10;99.90
62339;DHT22;48368;53.406;6.214;2023-05-07T12:25:41;16.90;99.90
62339;DHT22;48368;53.406;6.214;2023-05-07T12:28:20;16.90;99.90
62339;DHT22;48368;53.406;6.214;2023-05-07T12:30:47;17.10;99.90
62339;DHT22;48368;53.406;6.214;2023-05-07T12:33:24;17.10;99.90
62339;DHT22;48368;53.406;6.214;2023-05-07T12:35:50;17.20;99.90
62339;DHT22;48368;53.406;6.214;2023-05-07T12:38:17;17.30;99.90
62339;DHT22;48368;53.406;6.214;2023-05-07T12:40:44;17.30;99.90
62339;DHT22;48368;53.406;6.214;2023-05-07T12:43:20;17.60;99.90
62339;DHT22;48368;53.406;6.214;2023-05-07T12:45:50;17.80;99.90
62339;DHT22;48368;53.406;6.214;2023-05-07T12:48:17;18.00;99.90
62339;DHT22;48368;53.406;6.214;2023-05-07T12:50:43;18.00;99.90
62339;DHT22;48368;53.406;6.214;2023-05-07T12:53:10;18.10;99.90
62339;DHT22;48368;53.406;6.214;2023-05-07T12:55:58;18.00;99.90
62339;DHT22;48368;53.406;6.214;2023-05-07T12:58:29;18.00;99.90
62339;DHT22;48368;53.406;6.214;2023-05-07T13:00:56;18.10;99.90
62339;DHT22;48368;53.406;6.214;2023-05-07T13:03:34;18.00;99.90
62339;DHT22;48368;53.406;6.214;2023-05-07T13:06:05;18.10;99.90
62339;DHT22;48368;53.406;6.214;2023-05-07T13:08:33;17.90;99.90
62339;DHT22;48368;53.406;6.214;2023-05-07T13:11:00;18.10;99.90
62339;DHT22;48368;53.406;6.214;2023-05-07T13:13:32;18.20;99.90
62339;DHT22;48368;53.406;6.214;2023-05-07T13:15:58;18.10;99.90
62339;DHT22;48368;53.406;6.214;2023-05-07T13:18:25;18.00;99.90
62339;DHT22;48368;53.406;6.214;2023-05-07T13:20:52;18.10;99.90
62339;DHT22;48368;53.406;6.214;2023-05-07T13:23:18;18.00;99.90
62339;DHT22;48368;53.406;6.214;2023-05-07T13:25:47;17.80;99.90
62339;DHT22;48368;53.406;6.214;2023-05-07T13:28:13;17.80;99.90
62339;DHT22;48368;53.406;6.214;2023-05-07T13:30:39;17.50;99.90
62339;DHT22;48368;53.406;6.214;2023-05-07T13:33:06;17.80;99.90
62339;DHT22;48368;53.406;6.214;2023-05-07T13:35:33;17.70;99.90
62339;DHT22;48368;53.406;6.214;2023-05-07T13:37:58;17.80;99.90
62339;DHT22;48368;53.406;6.214;2023-05-07T13:40:24;17.80;99.90
62339;DHT22;48368;53.406;6.214;2023-05-07T13:42:50;17.60;99.90
62339;DHT22;48368;53.406;6.214;2023-05-07T13:45:17;17.70;99.90
62339;DHT22;48368;53.406;6.214;2023-05-07T13:47:43;17.70;99.90
62339;DHT22;48368;53.406;6.214;2023-05-07T13:50:10;17.50;99.90
62339;DHT22;48368;53.406;6.214;2023-05-07T13:52:37;17.60;99.90
62339;DHT22;48368;53.406;6.214;2023-05-07T13:55:03;17.70;99.90
62339;DHT22;48368;53.406;6.214;2023-05-07T13:57:29;17.90;99.90
62339;DHT22;48368;53.406;6.214;2023-05-07T13:59:55;18.00;99.90
62339;DHT22;48368;53.406;6.214;2023-05-07T14:02:20;18.10;99.90
62339;DHT22;48368;53.406;6.214;2023-05-07T14:04:46;18.30;99.90
62339;DHT22;48368;53.406;6.214;2023-05-07T14:07:12;18.50;99.90
62339;DHT22;48368;53.406;6.214;2023-05-07T14:09:37;18.40;99.90
62339;DHT22;48368;53.406;6.214;2023-05-07T14:12:03;18.50;99.90
62339;DHT22;48368;53.406;6.214;2023-05-07T14:14:30;18.50;99.90
62339;DHT22;48368;53.406;6.214;2023-05-07T14:16:55;18.30;99.90
62339;DHT22;48368;53.406;6.214;2023-05-07T14:19:21;18.40;99.90
62339;DHT22;48368;53.406;6.214;2023-05-07T14:21:48;18.20;99.90
62339;DHT22;48368;53.406;6.214;2023-05-07T14:24:14;18.40;99.90
62339;DHT22;48368;53.406;6.214;2023-05-07T14:26:40;18.40;99.90
62339;DHT22;48368;53.406;6.214;2023-05-07T14:29:05;18.50;99.90
62339;DHT22;48368;53.406;6.214;2023-05-07T14:31:31;18.50;99.90
62339;DHT22;48368;53.406;6.214;2023-05-07T14:33:58;18.50;99.90
62339;DHT22;48368;53.406;6.214;2023-05-07T14:36:24;18.60;99.90
62339;DHT22;48368;53.406;6.214;2023-05-07T14:38:52;18.50;99.90
62339;DHT22;48368;53.406;6.214;2023-05-07T14:41:20;18.50;99.90
62339;DHT22;48368;53.406;6.214;2023-05-07T14:43:47;18.60;99.90
62339;DHT22;48368;53.406;6.214;2023-05-07T14:46:18;18.50;99.90
62339;DHT22;48368;53.406;6.214;2023-05-07T14:48:45;18.60;99.90
62339;DHT22;48368;53.406;6.214;2023-05-07T14:51:13;18.80;99.90
62339;DHT22;48368;53.406;6.214;2023-05-07T14:53:41;18.70;99.90
62339;DHT22;48368;53.406;6.214;2023-05-07T14:56:06;18.70;99.90
62339;DHT22;48368;53.406;6.214;2023-05-07T14:58:33;18.70;99.90
62339;DHT22;48368;53.406;6.214;2023-05-07T15:00:59;18.80;99.90
62339;DHT22;48368;53.406;6.214;2023-05-07T15:03:25;18.80;99.90
62339;DHT22;48368;53.406;6.214;2023-05-07T15:05:51;18.80;99.90
62339;DHT22;48368;53.406;6.214;2023-05-07T15:08:17;18.70;99.90
62339;DHT22;48368;53.406;6.214;2023-05-07T15:10:43;18.80;99.90
62339;DHT22;48368;53.406;6.214;2023-05-07T15:13:10;18.90;99.90
62339;DHT22;48368;53.406;6.214;2023-05-07T15:15:36;18.90;99.90
62339;DHT22;48368;53.406;6.214;2023-05-07T15:18:02;18.80;99.90
62339;DHT22;48368;53.406;6.214;2023-05-07T15:20:28;18.90;99.90
62339;DHT22;48368;53.406;6.214;2023-05-07T15:22:54;19.00;99.90
62339;DHT22;48368;53.406;6.214;2023-05-07T15:25:20;18.90;99.90
62339;DHT22;48368;53.406;6.214;2023-05-07T15:27:46;19.00;99.90
62339;DHT22;48368;53.406;6.214;2023-05-07T15:30:14;18.80;99.90
62339;DHT22;48368;53.406;6.214;2023-05-07T15:32:41;18.90;99.90
62339;DHT22;48368;53.406;6.214;2023-05-07T15:35:07;18.90;99.90
62339;DHT22;48368;53.406;6.214;2023-05-07T15:37:33;18.80;99.90
62339;DHT22;48368;53.406;6.214;2023-05-07T15:39:59;18.70;99.90
62339;DHT22;48368;53.406;6.214;2023-05-07T15:42:27;18.70;99.90
62339;DHT22;48368;53.406;6.214;2023-05-07T15:44:53;18.60;99.90
62339;DHT22;48368;53.406;6.214;2023-05-07T15:47:20;18.60;99.90